Terminal Aerodrome Forecast
Issued by NWS Louisville, KY

Home | Current Version | Previous Version | Text Only | Print | Product List | Glossary On
Versions: 1 2 3 4 5 6 7 8 9 10 11 12 13 14 15 16 17
000
FTUS43 KLMK 050524
TAFLEX
TAF
KLEX 050524Z 0506/0606 31004KT P6SM BKN070
     FM050800 30004KT P6SM VCSH BKN030
      TEMPO 0510/0513 BKN015
     FM051300 34008KT P6SM BKN025
     FM051800 34010KT P6SM BKN035
     FM060000 32004KT P6SM SCT045=

USA.gov is the U.S. government's official web portal to all federal, state and local government web resources and services.